sensor_id;sensor_type;location;lat;lon;timestamp;P1;durP1;ratioP1;P2;durP2;ratioP2
34920;SDS011;21128;50.016;20.002;2024-02-21T00:00:18;14.00;;;6.80;;
34920;SDS011;21128;50.016;20.002;2024-02-21T00:03:06;13.60;;;6.30;;
34920;SDS011;21128;50.016;20.002;2024-02-21T00:05:33;15.60;;;7.00;;
34920;SDS011;21128;50.016;20.002;2024-02-21T00:08:00;14.60;;;6.70;;
34920;SDS011;21128;50.016;20.002;2024-02-21T00:10:26;14.30;;;6.30;;
34920;SDS011;21128;50.016;20.002;2024-02-21T00:12:53;10.80;;;6.40;;
34920;SDS011;21128;50.016;20.002;2024-02-21T00:15:20;15.70;;;6.80;;
34920;SDS011;21128;50.016;20.002;2024-02-21T00:17:47;16.80;;;7.30;;
34920;SDS011;21128;50.016;20.002;2024-02-21T00:20:15;16.60;;;7.60;;
34920;SDS011;21128;50.016;20.002;2024-02-21T00:22:42;13.90;;;7.00;;
34920;SDS011;21128;50.016;20.002;2024-02-21T00:25:08;13.00;;;6.90;;
34920;SDS011;21128;50.016;20.002;2024-02-21T00:27:35;14.70;;;7.80;;
34920;SDS011;21128;50.016;20.002;2024-02-21T00:30:02;22.10;;;8.30;;
34920;SDS011;21128;50.016;20.002;2024-02-21T00:32:30;15.10;;;7.70;;
34920;SDS011;21128;50.016;20.002;2024-02-21T00:34:57;18.40;;;8.70;;
34920;SDS011;21128;50.016;20.002;2024-02-21T00:37:23;20.70;;;9.00;;
34920;SDS011;21128;50.016;20.002;2024-02-21T00:39:50;19.70;;;9.80;;
34920;SDS011;21128;50.016;20.002;2024-02-21T00:42:17;20.00;;;9.60;;
34920;SDS011;21128;50.016;20.002;2024-02-21T00:44:44;18.20;;;9.10;;
34920;SDS011;21128;50.016;20.002;2024-02-21T00:47:11;20.00;;;9.80;;
34920;SDS011;21128;50.016;20.002;2024-02-21T00:49:38;20.40;;;10.10;;
34920;SDS011;21128;50.016;20.002;2024-02-21T00:52:05;18.90;;;9.90;;
34920;SDS011;21128;50.016;20.002;2024-02-21T00:54:32;19.70;;;10.30;;
34920;SDS011;21128;50.016;20.002;2024-02-21T00:56:58;22.90;;;10.90;;
34920;SDS011;21128;50.016;20.002;2024-02-21T00:59:25;23.00;;;11.30;;
34920;SDS011;21128;50.016;20.002;2024-02-21T01:01:52;26.20;;;11.60;;
34920;SDS011;21128;50.016;20.002;2024-02-21T01:04:18;24.10;;;11.80;;
34920;SDS011;21128;50.016;20.002;2024-02-21T01:06:45;19.30;;;11.90;;
34920;SDS011;21128;50.016;20.002;2024-02-21T01:09:12;22.00;;;11.90;;
34920;SDS011;21128;50.016;20.002;2024-02-21T01:11:39;29.20;;;12.50;;
34920;SDS011;21128;50.016;20.002;2024-02-21T01:14:05;20.30;;;11.10;;
34920;SDS011;21128;50.016;20.002;2024-02-21T01:16:32;30.20;;;12.70;;
34920;SDS011;21128;50.016;20.002;2024-02-21T01:18:59;26.50;;;11.70;;
34920;SDS011;21128;50.016;20.002;2024-02-21T01:21:26;27.00;;;12.60;;
34920;SDS011;21128;50.016;20.002;2024-02-21T01:23:53;27.30;;;13.30;;
34920;SDS011;21128;50.016;20.002;2024-02-21T01:26:19;23.40;;;13.20;;
34920;SDS011;21128;50.016;20.002;2024-02-21T01:28:46;22.80;;;13.60;;
34920;SDS011;21128;50.016;20.002;2024-02-21T01:31:13;25.70;;;14.50;;
34920;SDS011;21128;50.016;20.002;2024-02-21T01:33:41;28.00;;;14.70;;
34920;SDS011;21128;50.016;20.002;2024-02-21T01:36:09;30.40;;;14.10;;
34920;SDS011;21128;50.016;20.002;2024-02-21T01:38:35;26.40;;;13.90;;
34920;SDS011;21128;50.016;20.002;2024-02-21T01:41:02;29.90;;;14.80;;
34920;SDS011;21128;50.016;20.002;2024-02-21T01:43:29;32.10;;;14.70;;
34920;SDS011;21128;50.016;20.002;2024-02-21T01:45:56;31.70;;;14.50;;
34920;SDS011;21128;50.016;20.002;2024-02-21T01:48:24;26.80;;;14.20;;
34920;SDS011;21128;50.016;20.002;2024-02-21T01:50:52;27.20;;;13.90;;
34920;SDS011;21128;50.016;20.002;2024-02-21T01:53:21;30.20;;;15.00;;
34920;SDS011;21128;50.016;20.002;2024-02-21T01:55:51;34.10;;;13.80;;
34920;SDS011;21128;50.016;20.002;2024-02-21T01:58:19;30.80;;;14.20;;
34920;SDS011;21128;50.016;20.002;2024-02-21T02:00:46;24.30;;;11.80;;
34920;SDS011;21128;50.016;20.002;2024-02-21T02:03:14;26.00;;;12.40;;
34920;SDS011;21128;50.016;20.002;2024-02-21T02:05:47;22.70;;;11.50;;
34920;SDS011;21128;50.016;20.002;2024-02-21T02:08:18;30.40;;;12.50;;
34920;SDS011;21128;50.016;20.002;2024-02-21T02:10:46;29.60;;;13.10;;
34920;SDS011;21128;50.016;20.002;2024-02-21T02:13:12;25.40;;;12.10;;
34920;SDS011;21128;50.016;20.002;2024-02-21T02:15:46;26.30;;;12.20;;
34920;SDS011;21128;50.016;20.002;2024-02-21T02:18:15;32.00;;;13.40;;
34920;SDS011;21128;50.016;20.002;2024-02-21T02:20:44;29.60;;;12.50;;
34920;SDS011;21128;50.016;20.002;2024-02-21T02:26:00;30.30;;;10.80;;
34920;SDS011;21128;50.016;20.002;2024-02-21T02:28:28;27.20;;;12.70;;
34920;SDS011;21128;50.016;20.002;2024-02-21T02:30:55;24.40;;;11.50;;
34920;SDS011;21128;50.016;20.002;2024-02-21T02:33:21;24.30;;;11.10;;
34920;SDS011;21128;50.016;20.002;2024-02-21T02:35:48;30.00;;;10.80;;
34920;SDS011;21128;50.016;20.002;2024-02-21T02:38:15;27.00;;;11.30;;
34920;SDS011;21128;50.016;20.002;2024-02-21T02:40:42;27.80;;;10.90;;
34920;SDS011;21128;50.016;20.002;2024-02-21T02:43:09;28.10;;;10.10;;
34920;SDS011;21128;50.016;20.002;2024-02-21T02:45:36;24.20;;;10.30;;
34920;SDS011;21128;50.016;20.002;2024-02-21T02:48:03;24.30;;;10.10;;
34920;SDS011;21128;50.016;20.002;2024-02-21T02:50:30;28.30;;;9.80;;
34920;SDS011;21128;50.016;20.002;2024-02-21T02:52:57;29.70;;;10.40;;
34920;SDS011;21128;50.016;20.002;2024-02-21T02:55:24;27.90;;;10.10;;
34920;SDS011;21128;50.016;20.002;2024-02-21T02:57:52;18.80;;;9.10;;
34920;SDS011;21128;50.016;20.002;2024-02-21T03:00:19;25.90;;;10.30;;
34920;SDS011;21128;50.016;20.002;2024-02-21T03:02:46;28.40;;;9.00;;
34920;SDS011;21128;50.016;20.002;2024-02-21T03:05:16;21.40;;;9.90;;
34920;SDS011;21128;50.016;20.002;2024-02-21T03:07:44;24.70;;;9.20;;
34920;SDS011;21128;50.016;20.002;2024-02-21T03:10:12;26.80;;;10.90;;
34920;SDS011;21128;50.016;20.002;2024-02-21T03:12:40;25.70;;;9.90;;
34920;SDS011;21128;50.016;20.002;2024-02-21T03:15:07;22.90;;;9.80;;
34920;SDS011;21128;50.016;20.002;2024-02-21T03:17:34;24.50;;;9.50;;
34920;SDS011;21128;50.016;20.002;2024-02-21T03:20:05;29.30;;;10.10;;
34920;SDS011;21128;50.016;20.002;2024-02-21T03:22:35;20.20;;;8.70;;
34920;SDS011;21128;50.016;20.002;2024-02-21T03:25:03;25.70;;;8.50;;
34920;SDS011;21128;50.016;20.002;2024-02-21T03:27:30;22.40;;;8.80;;
34920;SDS011;21128;50.016;20.002;2024-02-21T03:29:57;23.20;;;9.70;;
34920;SDS011;21128;50.016;20.002;2024-02-21T03:32:24;18.50;;;9.30;;
34920;SDS011;21128;50.016;20.002;2024-02-21T03:34:50;20.30;;;9.80;;
34920;SDS011;21128;50.016;20.002;2024-02-21T03:37:17;26.00;;;9.00;;
34920;SDS011;21128;50.016;20.002;2024-02-21T03:39:44;23.00;;;9.40;;
34920;SDS011;21128;50.016;20.002;2024-02-21T03:42:12;27.10;;;9.50;;
34920;SDS011;21128;50.016;20.002;2024-02-21T03:44:38;19.70;;;8.50;;
34920;SDS011;21128;50.016;20.002;2024-02-21T03:47:05;21.30;;;9.20;;
34920;SDS011;21128;50.016;20.002;2024-02-21T03:49:32;19.70;;;8.90;;
34920;SDS011;21128;50.016;20.002;2024-02-21T03:51:59;20.40;;;9.10;;
34920;SDS011;21128;50.016;20.002;2024-02-21T03:54:26;22.90;;;9.40;;
34920;SDS011;21128;50.016;20.002;2024-02-21T03:56:52;23.70;;;9.00;;
34920;SDS011;21128;50.016;20.002;2024-02-21T03:59:20;31.40;;;8.70;;
34920;SDS011;21128;50.016;20.002;2024-02-21T04:01:54;23.50;;;9.70;;
34920;SDS011;21128;50.016;20.002;2024-02-21T04:04:22;21.80;;;8.90;;
34920;SDS011;21128;50.016;20.002;2024-02-21T04:06:49;21.20;;;8.80;;
34920;SDS011;21128;50.016;20.002;2024-02-21T04:09:16;23.50;;;9.10;;
34920;SDS011;21128;50.016;20.002;2024-02-21T04:11:43;22.40;;;8.40;;
34920;SDS011;21128;50.016;20.002;2024-02-21T04:14:10;24.70;;;8.90;;
34920;SDS011;21128;50.016;20.002;2024-02-21T04:16:37;22.30;;;8.30;;
34920;SDS011;21128;50.016;20.002;2024-02-21T04:19:05;29.60;;;9.50;;
34920;SDS011;21128;50.016;20.002;2024-02-21T04:21:32;26.00;;;8.50;;
34920;SDS011;21128;50.016;20.002;2024-02-21T04:23:59;28.80;;;9.70;;
34920;SDS011;21128;50.016;20.002;2024-02-21T04:26:26;26.10;;;10.10;;
34920;SDS011;21128;50.016;20.002;2024-02-21T04:28:53;23.20;;;9.00;;
34920;SDS011;21128;50.016;20.002;2024-02-21T04:31:20;23.50;;;9.50;;
34920;SDS011;21128;50.016;20.002;2024-02-21T04:33:46;25.90;;;9.00;;
34920;SDS011;21128;50.016;20.002;2024-02-21T04:36:13;31.90;;;10.00;;
34920;SDS011;21128;50.016;20.002;2024-02-21T04:38:40;27.60;;;8.70;;
34920;SDS011;21128;50.016;20.002;2024-02-21T04:41:07;25.30;;;9.60;;
34920;SDS011;21128;50.016;20.002;2024-02-21T04:43:34;25.30;;;8.50;;
34920;SDS011;21128;50.016;20.002;2024-02-21T04:46:01;21.00;;;7.80;;
34920;SDS011;21128;50.016;20.002;2024-02-21T04:48:28;23.10;;;8.30;;
34920;SDS011;21128;50.016;20.002;2024-02-21T04:50:55;24.30;;;8.00;;
34920;SDS011;21128;50.016;20.002;2024-02-21T04:53:22;29.90;;;8.10;;
34920;SDS011;21128;50.016;20.002;2024-02-21T04:55:48;22.90;;;6.80;;
34920;SDS011;21128;50.016;20.002;2024-02-21T04:58:15;23.10;;;7.40;;
34920;SDS011;21128;50.016;20.002;2024-02-21T05:00:42;21.70;;;6.70;;
34920;SDS011;21128;50.016;20.002;2024-02-21T05:03:09;20.20;;;7.10;;
34920;SDS011;21128;50.016;20.002;2024-02-21T05:05:36;22.30;;;7.30;;
34920;SDS011;21128;50.016;20.002;2024-02-21T05:08:03;21.70;;;7.50;;
34920;SDS011;21128;50.016;20.002;2024-02-21T05:10:30;17.00;;;7.00;;
34920;SDS011;21128;50.016;20.002;2024-02-21T05:12:57;26.10;;;7.50;;
34920;SDS011;21128;50.016;20.002;2024-02-21T05:15:25;19.40;;;6.70;;
34920;SDS011;21128;50.016;20.002;2024-02-21T05:17:51;19.30;;;6.60;;
34920;SDS011;21128;50.016;20.002;2024-02-21T05:20:19;19.90;;;7.00;;
34920;SDS011;21128;50.016;20.002;2024-02-21T05:22:46;15.20;;;6.50;;
34920;SDS011;21128;50.016;20.002;2024-02-21T05:25:12;19.60;;;7.10;;
34920;SDS011;21128;50.016;20.002;2024-02-21T05:27:39;24.50;;;7.10;;
34920;SDS011;21128;50.016;20.002;2024-02-21T05:30:06;19.00;;;6.30;;
34920;SDS011;21128;50.016;20.002;2024-02-21T05:32:33;16.60;;;6.60;;
34920;SDS011;21128;50.016;20.002;2024-02-21T05:35:00;19.30;;;6.30;;
34920;SDS011;21128;50.016;20.002;2024-02-21T05:37:27;20.20;;;6.70;;
34920;SDS011;21128;50.016;20.002;2024-02-21T05:39:54;18.20;;;6.90;;
34920;SDS011;21128;50.016;20.002;2024-02-21T05:42:21;14.40;;;6.60;;
34920;SDS011;21128;50.016;20.002;2024-02-21T05:44:47;17.80;;;5.70;;
34920;SDS011;21128;50.016;20.002;2024-02-21T05:47:14;19.40;;;6.30;;
34920;SDS011;21128;50.016;20.002;2024-02-21T05:49:41;19.50;;;7.60;;
34920;SDS011;21128;50.016;20.002;2024-02-21T05:52:08;24.00;;;7.20;;
34920;SDS011;21128;50.016;20.002;2024-02-21T05:54:37;20.60;;;6.10;;
34920;SDS011;21128;50.016;20.002;2024-02-21T05:57:05;20.10;;;6.10;;
34920;SDS011;21128;50.016;20.002;2024-02-21T05:59:33;17.10;;;6.00;;
34920;SDS011;21128;50.016;20.002;2024-02-21T06:02:01;16.60;;;6.20;;
34920;SDS011;21128;50.016;20.002;2024-02-21T06:04:30;16.50;;;7.00;;
34920;SDS011;21128;50.016;20.002;2024-02-21T06:06:57;17.60;;;6.10;;
34920;SDS011;21128;50.016;20.002;2024-02-21T06:09:23;23.50;;;6.00;;
34920;SDS011;21128;50.016;20.002;2024-02-21T06:11:50;17.80;;;7.20;;
34920;SDS011;21128;50.016;20.002;2024-02-21T06:14:17;20.90;;;6.80;;
34920;SDS011;21128;50.016;20.002;2024-02-21T06:16:44;17.80;;;6.40;;
34920;SDS011;21128;50.016;20.002;2024-02-21T06:19:11;18.60;;;6.30;;
34920;SDS011;21128;50.016;20.002;2024-02-21T06:21:37;23.10;;;6.70;;
34920;SDS011;21128;50.016;20.002;2024-02-21T06:24:05;29.70;;;6.10;;
34920;SDS011;21128;50.016;20.002;2024-02-21T06:26:32;15.60;;;5.80;;
34920;SDS011;21128;50.016;20.002;2024-02-21T06:28:58;16.90;;;6.40;;
34920;SDS011;21128;50.016;20.002;2024-02-21T06:31:28;15.60;;;5.50;;
34920;SDS011;21128;50.016;20.002;2024-02-21T06:33:55;14.80;;;5.00;;
34920;SDS011;21128;50.016;20.002;2024-02-21T06:36:22;12.70;;;5.00;;
34920;SDS011;21128;50.016;20.002;2024-02-21T06:38:49;16.30;;;5.40;;
34920;SDS011;21128;50.016;20.002;2024-02-21T06:41:16;15.10;;;5.90;;
34920;SDS011;21128;50.016;20.002;2024-02-21T06:43:48;14.80;;;5.70;;
34920;SDS011;21128;50.016;20.002;2024-02-21T06:48:52;12.30;;;4.90;;
34920;SDS011;21128;50.016;20.002;2024-02-21T06:51:19;11.20;;;4.20;;
34920;SDS011;21128;50.016;20.002;2024-02-21T06:53:46;13.50;;;4.60;;
34920;SDS011;21128;50.016;20.002;2024-02-21T06:56:12;14.40;;;4.20;;
34920;SDS011;21128;50.016;20.002;2024-02-21T06:58:39;15.00;;;3.90;;
34920;SDS011;21128;50.016;20.002;2024-02-21T07:01:06;13.50;;;4.30;;
34920;SDS011;21128;50.016;20.002;2024-02-21T07:03:33;12.00;;;4.50;;
34920;SDS011;21128;50.016;20.002;2024-02-21T07:06:00;11.80;;;4.30;;
34920;SDS011;21128;50.016;20.002;2024-02-21T07:08:27;17.90;;;4.60;;
34920;SDS011;21128;50.016;20.002;2024-02-21T07:10:54;12.70;;;3.90;;
34920;SDS011;21128;50.016;20.002;2024-02-21T07:13:21;11.40;;;3.60;;
34920;SDS011;21128;50.016;20.002;2024-02-21T07:15:49;12.90;;;4.30;;
34920;SDS011;21128;50.016;20.002;2024-02-21T07:18:16;11.90;;;4.00;;
34920;SDS011;21128;50.016;20.002;2024-02-21T07:20:42;14.40;;;4.10;;
34920;SDS011;21128;50.016;20.002;2024-02-21T07:23:09;11.30;;;4.50;;
34920;SDS011;21128;50.016;20.002;2024-02-21T07:25:36;22.80;;;4.50;;
34920;SDS011;21128;50.016;20.002;2024-02-21T07:28:03;8.10;;;3.60;;
34920;SDS011;21128;50.016;20.002;2024-02-21T07:30:30;13.70;;;4.30;;
34920;SDS011;21128;50.016;20.002;2024-02-21T07:32:57;14.50;;;4.50;;
34920;SDS011;21128;50.016;20.002;2024-02-21T07:35:24;11.70;;;4.10;;
34920;SDS011;21128;50.016;20.002;2024-02-21T07:37:51;12.60;;;4.30;;
34920;SDS011;21128;50.016;20.002;2024-02-21T07:40:18;10.90;;;4.20;;
34920;SDS011;21128;50.016;20.002;2024-02-21T07:42:45;14.70;;;4.50;;
34920;SDS011;21128;50.016;20.002;2024-02-21T07:45:12;10.40;;;4.10;;
34920;SDS011;21128;50.016;20.002;2024-02-21T07:47:38;11.20;;;4.10;;
34920;SDS011;21128;50.016;20.002;2024-02-21T07:50:05;16.10;;;4.70;;
34920;SDS011;21128;50.016;20.002;2024-02-21T07:52:33;12.00;;;4.10;;
34920;SDS011;21128;50.016;20.002;2024-02-21T07:55:00;9.50;;;4.40;;
34920;SDS011;21128;50.016;20.002;2024-02-21T07:57:27;11.80;;;4.40;;
34920;SDS011;21128;50.016;20.002;2024-02-21T07:59:54;7.20;;;3.60;;
34920;SDS011;21128;50.016;20.002;2024-02-21T08:02:21;10.60;;;4.10;;
34920;SDS011;21128;50.016;20.002;2024-02-21T08:04:48;9.80;;;3.50;;
34920;SDS011;21128;50.016;20.002;2024-02-21T08:07:14;15.00;;;3.60;;
34920;SDS011;21128;50.016;20.002;2024-02-21T08:09:41;10.60;;;4.00;;
34920;SDS011;21128;50.016;20.002;2024-02-21T08:12:08;14.00;;;3.80;;
34920;SDS011;21128;50.016;20.002;2024-02-21T08:14:35;11.80;;;3.40;;
34920;SDS011;21128;50.016;20.002;2024-02-21T08:17:02;9.40;;;2.90;;
34920;SDS011;21128;50.016;20.002;2024-02-21T08:19:30;10.80;;;3.20;;
34920;SDS011;21128;50.016;20.002;2024-02-21T08:21:57;9.40;;;3.10;;
34920;SDS011;21128;50.016;20.002;2024-02-21T08:24:24;8.40;;;2.60;;
34920;SDS011;21128;50.016;20.002;2024-02-21T08:26:51;12.10;;;4.30;;
34920;SDS011;21128;50.016;20.002;2024-02-21T08:29:17;14.00;;;3.90;;
34920;SDS011;21128;50.016;20.002;2024-02-21T08:31:44;16.10;;;3.60;;
34920;SDS011;21128;50.016;20.002;2024-02-21T08:34:11;12.70;;;3.70;;
34920;SDS011;21128;50.016;20.002;2024-02-21T08:36:39;12.70;;;3.60;;
34920;SDS011;21128;50.016;20.002;2024-02-21T08:39:06;9.20;;;3.20;;
34920;SDS011;21128;50.016;20.002;2024-02-21T08:41:34;6.70;;;3.00;;
34920;SDS011;21128;50.016;20.002;2024-02-21T08:44:00;9.10;;;3.60;;
34920;SDS011;21128;50.016;20.002;2024-02-21T08:46:27;9.60;;;3.70;;
34920;SDS011;21128;50.016;20.002;2024-02-21T08:48:54;9.40;;;3.70;;
34920;SDS011;21128;50.016;20.002;2024-02-21T08:51:21;13.10;;;3.80;;
34920;SDS011;21128;50.016;20.002;2024-02-21T08:53:48;8.60;;;4.10;;
34920;SDS011;21128;50.016;20.002;2024-02-21T08:56:16;16.10;;;4.60;;
34920;SDS011;21128;50.016;20.002;2024-02-21T08:58:43;12.40;;;3.50;;
34920;SDS011;21128;50.016;20.002;2024-02-21T09:01:10;9.20;;;4.00;;
34920;SDS011;21128;50.016;20.002;2024-02-21T09:03:37;12.70;;;4.70;;
34920;SDS011;21128;50.016;20.002;2024-02-21T09:06:05;13.90;;;4.40;;
34920;SDS011;21128;50.016;20.002;2024-02-21T09:08:32;11.30;;;4.30;;
34920;SDS011;21128;50.016;20.002;2024-02-21T09:11:00;14.60;;;4.30;;
34920;SDS011;21128;50.016;20.002;2024-02-21T09:13:27;11.00;;;4.10;;
34920;SDS011;21128;50.016;20.002;2024-02-21T09:15:54;10.30;;;3.40;;
34920;SDS011;21128;50.016;20.002;2024-02-21T09:18:22;12.60;;;4.10;;
34920;SDS011;21128;50.016;20.002;2024-02-21T09:20:48;10.30;;;3.80;;
34920;SDS011;21128;50.016;20.002;2024-02-21T09:23:15;8.80;;;3.60;;
34920;SDS011;21128;50.016;20.002;2024-02-21T09:25:42;11.30;;;4.60;;
34920;SDS011;21128;50.016;20.002;2024-02-21T09:28:09;12.90;;;4.50;;
34920;SDS011;21128;50.016;20.002;2024-02-21T09:30:36;10.20;;;4.30;;
34920;SDS011;21128;50.016;20.002;2024-02-21T09:33:04;13.70;;;3.60;;
34920;SDS011;21128;50.016;20.002;2024-02-21T09:35:31;16.70;;;3.80;;
34920;SDS011;21128;50.016;20.002;2024-02-21T09:38:01;8.80;;;3.20;;
34920;SDS011;21128;50.016;20.002;2024-02-21T09:40:29;9.40;;;3.80;;
34920;SDS011;21128;50.016;20.002;2024-02-21T09:43:03;11.30;;;3.60;;
34920;SDS011;21128;50.016;20.002;2024-02-21T09:45:33;10.80;;;3.00;;
34920;SDS011;21128;50.016;20.002;2024-02-21T09:50:43;8.10;;;2.70;;
34920;SDS011;21128;50.016;20.002;2024-02-21T09:53:12;6.50;;;2.30;;
34920;SDS011;21128;50.016;20.002;2024-02-21T09:55:43;10.00;;;2.10;;
34920;SDS011;21128;50.016;20.002;2024-02-21T09:58:11;6.20;;;2.50;;
34920;SDS011;21128;50.016;20.002;2024-02-21T10:00:38;8.20;;;2.50;;
34920;SDS011;21128;50.016;20.002;2024-02-21T10:03:05;9.50;;;3.10;;
34920;SDS011;21128;50.016;20.002;2024-02-21T10:05:35;7.80;;;2.80;;
34920;SDS011;21128;50.016;20.002;2024-02-21T10:08:03;7.50;;;2.70;;
34920;SDS011;21128;50.016;20.002;2024-02-21T10:10:40;8.40;;;2.90;;
34920;SDS011;21128;50.016;20.002;2024-02-21T10:13:27;8.60;;;3.30;;
34920;SDS011;21128;50.016;20.002;2024-02-21T10:16:05;6.30;;;2.50;;
34920;SDS011;21128;50.016;20.002;2024-02-21T10:18:34;8.70;;;2.90;;
34920;SDS011;21128;50.016;20.002;2024-02-21T10:21:02;7.10;;;2.80;;
34920;SDS011;21128;50.016;20.002;2024-02-21T10:23:46;12.50;;;2.90;;
34920;SDS011;21128;50.016;20.002;2024-02-21T10:26:15;9.30;;;3.00;;
34920;SDS011;21128;50.016;20.002;2024-02-21T10:28:44;9.00;;;2.90;;
34920;SDS011;21128;50.016;20.002;2024-02-21T10:31:26;7.30;;;2.40;;
34920;SDS011;21128;50.016;20.002;2024-02-21T10:33:54;6.10;;;2.70;;
34920;SDS011;21128;50.016;20.002;2024-02-21T10:36:25;5.80;;;2.50;;
34920;SDS011;21128;50.016;20.002;2024-02-21T10:38:52;7.00;;;2.60;;
34920;SDS011;21128;50.016;20.002;2024-02-21T10:41:21;10.70;;;3.30;;
34920;SDS011;21128;50.016;20.002;2024-02-21T10:43:55;9.60;;;3.00;;
34920;SDS011;21128;50.016;20.002;2024-02-21T10:46:23;9.60;;;3.30;;
34920;SDS011;21128;50.016;20.002;2024-02-21T10:54:45;9.90;;;2.60;;
34920;SDS011;21128;50.016;20.002;2024-02-21T10:57:23;8.30;;;2.40;;
34920;SDS011;21128;50.016;20.002;2024-02-21T10:59:51;6.10;;;2.30;;
34920;SDS011;21128;50.016;20.002;2024-02-21T11:02:21;7.50;;;2.80;;
34920;SDS011;21128;50.016;20.002;2024-02-21T11:04:48;7.90;;;2.90;;
34920;SDS011;21128;50.016;20.002;2024-02-21T11:07:18;5.90;;;2.70;;
34920;SDS011;21128;50.016;20.002;2024-02-21T11:09:52;8.20;;;2.70;;
34920;SDS011;21128;50.016;20.002;2024-02-21T11:12:21;9.30;;;2.40;;
34920;SDS011;21128;50.016;20.002;2024-02-21T11:14:48;8.40;;;3.10;;
34920;SDS011;21128;50.016;20.002;2024-02-21T11:17:16;14.80;;;2.90;;
34920;SDS011;21128;50.016;20.002;2024-02-21T11:19:44;8.10;;;2.80;;
34920;SDS011;21128;50.016;20.002;2024-02-21T11:22:17;7.30;;;2.70;;
34920;SDS011;21128;50.016;20.002;2024-02-21T11:24:46;7.40;;;2.90;;
34920;SDS011;21128;50.016;20.002;2024-02-21T11:27:14;11.10;;;3.30;;
34920;SDS011;21128;50.016;20.002;2024-02-21T11:29:44;5.10;;;2.40;;
34920;SDS011;21128;50.016;20.002;2024-02-21T11:32:15;7.20;;;2.60;;
34920;SDS011;21128;50.016;20.002;2024-02-21T11:34:58;8.50;;;2.90;;
34920;SDS011;21128;50.016;20.002;2024-02-21T11:37:28;8.80;;;2.60;;
34920;SDS011;21128;50.016;20.002;2024-02-21T11:39:56;7.30;;;2.90;;
34920;SDS011;21128;50.016;20.002;2024-02-21T11:42:27;7.20;;;2.60;;
34920;SDS011;21128;50.016;20.002;2024-02-21T11:44:58;6.60;;;3.00;;
34920;SDS011;21128;50.016;20.002;2024-02-21T11:47:28;12.90;;;3.10;;
34920;SDS011;21128;50.016;20.002;2024-02-21T11:49:55;10.10;;;3.00;;
34920;SDS011;21128;50.016;20.002;2024-02-21T11:52:22;6.50;;;2.90;;
34920;SDS011;21128;50.016;20.002;2024-02-21T11:54:54;10.40;;;3.10;;
34920;SDS011;21128;50.016;20.002;2024-02-21T11:57:22;11.30;;;3.10;;
34920;SDS011;21128;50.016;20.002;2024-02-21T11:59:50;9.50;;;3.50;;
34920;SDS011;21128;50.016;20.002;2024-02-21T12:02:18;8.20;;;3.20;;
34920;SDS011;21128;50.016;20.002;2024-02-21T12:04:46;8.50;;;3.30;;
34920;SDS011;21128;50.016;20.002;2024-02-21T12:07:12;14.60;;;4.00;;
34920;SDS011;21128;50.016;20.002;2024-02-21T12:09:41;7.50;;;3.60;;
34920;SDS011;21128;50.016;20.002;2024-02-21T12:12:08;7.70;;;3.30;;
34920;SDS011;21128;50.016;20.002;2024-02-21T12:14:35;7.10;;;3.20;;
34920;SDS011;21128;50.016;20.002;2024-02-21T12:17:02;9.60;;;3.20;;
34920;SDS011;21128;50.016;20.002;2024-02-21T12:19:32;11.10;;;4.60;;
34920;SDS011;21128;50.016;20.002;2024-02-21T12:22:00;10.40;;;4.00;;
34920;SDS011;21128;50.016;20.002;2024-02-21T12:24:28;8.00;;;3.70;;
34920;SDS011;21128;50.016;20.002;2024-02-21T12:26:56;10.80;;;4.00;;
34920;SDS011;21128;50.016;20.002;2024-02-21T12:29:25;11.70;;;3.80;;
34920;SDS011;21128;50.016;20.002;2024-02-21T12:31:52;9.50;;;4.20;;
34920;SDS011;21128;50.016;20.002;2024-02-21T12:34:21;9.50;;;3.80;;
34920;SDS011;21128;50.016;20.002;2024-02-21T12:36:49;13.50;;;4.60;;
34920;SDS011;21128;50.016;20.002;2024-02-21T12:39:16;11.80;;;4.30;;
34920;SDS011;21128;50.016;20.002;2024-02-21T12:41:42;11.70;;;3.80;;
34920;SDS011;21128;50.016;20.002;2024-02-21T12:44:10;10.60;;;4.40;;
34920;SDS011;21128;50.016;20.002;2024-02-21T12:46:39;10.10;;;4.00;;
34920;SDS011;21128;50.016;20.002;2024-02-21T12:49:06;11.50;;;4.20;;
34920;SDS011;21128;50.016;20.002;2024-02-21T12:51:34;12.70;;;4.20;;
34920;SDS011;21128;50.016;20.002;2024-02-21T12:54:01;8.10;;;4.40;;
34920;SDS011;21128;50.016;20.002;2024-02-21T12:56:31;8.00;;;4.10;;
34920;SDS011;21128;50.016;20.002;2024-02-21T12:58:58;12.80;;;4.70;;
34920;SDS011;21128;50.016;20.002;2024-02-21T13:01:24;10.30;;;3.80;;
34920;SDS011;21128;50.016;20.002;2024-02-21T13:03:52;10.40;;;3.70;;
34920;SDS011;21128;50.016;20.002;2024-02-21T13:06:20;9.40;;;4.20;;
34920;SDS011;21128;50.016;20.002;2024-02-21T13:08:47;20.00;;;3.30;;
34920;SDS011;21128;50.016;20.002;2024-02-21T13:11:14;10.50;;;3.30;;
34920;SDS011;21128;50.016;20.002;2024-02-21T13:13:41;10.10;;;4.00;;
34920;SDS011;21128;50.016;20.002;2024-02-21T13:16:08;8.30;;;3.10;;
34920;SDS011;21128;50.016;20.002;2024-02-21T13:18:36;10.50;;;4.00;;
34920;SDS011;21128;50.016;20.002;2024-02-21T13:21:04;8.80;;;3.90;;
34920;SDS011;21128;50.016;20.002;2024-02-21T13:23:32;11.80;;;4.70;;
34920;SDS011;21128;50.016;20.002;2024-02-21T13:25:59;10.30;;;3.70;;
34920;SDS011;21128;50.016;20.002;2024-02-21T13:28:26;12.00;;;4.80;;
34920;SDS011;21128;50.016;20.002;2024-02-21T13:30:53;16.20;;;4.00;;
34920;SDS011;21128;50.016;20.002;2024-02-21T13:33:19;10.00;;;4.50;;
34920;SDS011;21128;50.016;20.002;2024-02-21T13:35:46;12.40;;;3.90;;
34920;SDS011;21128;50.016;20.002;2024-02-21T13:38:13;14.30;;;3.90;;
34920;SDS011;21128;50.016;20.002;2024-02-21T13:40:41;7.60;;;3.60;;
34920;SDS011;21128;50.016;20.002;2024-02-21T13:43:09;11.90;;;4.30;;
34920;SDS011;21128;50.016;20.002;2024-02-21T13:45:36;10.80;;;4.10;;
34920;SDS011;21128;50.016;20.002;2024-02-21T13:48:03;10.10;;;4.50;;
34920;SDS011;21128;50.016;20.002;2024-02-21T13:50:32;11.10;;;4.60;;
34920;SDS011;21128;50.016;20.002;2024-02-21T13:53:08;12.80;;;4.70;;
34920;SDS011;21128;50.016;20.002;2024-02-21T13:55:36;14.20;;;5.80;;
34920;SDS011;21128;50.016;20.002;2024-02-21T13:58:03;8.20;;;4.60;;
34920;SDS011;21128;50.016;20.002;2024-02-21T14:00:30;9.50;;;4.00;;
34920;SDS011;21128;50.016;20.002;2024-02-21T14:02:59;12.00;;;4.40;;
34920;SDS011;21128;50.016;20.002;2024-02-21T14:05:27;13.60;;;4.80;;
34920;SDS011;21128;50.016;20.002;2024-02-21T14:07:55;16.10;;;4.60;;
34920;SDS011;21128;50.016;20.002;2024-02-21T14:10:24;10.50;;;4.40;;
34920;SDS011;21128;50.016;20.002;2024-02-21T14:12:51;8.70;;;3.90;;
34920;SDS011;21128;50.016;20.002;2024-02-21T14:15:18;9.20;;;4.20;;
34920;SDS011;21128;50.016;20.002;2024-02-21T14:17:45;9.50;;;4.30;;
34920;SDS011;21128;50.016;20.002;2024-02-21T14:20:11;13.60;;;4.30;;
34920;SDS011;21128;50.016;20.002;2024-02-21T14:22:40;12.30;;;4.50;;
34920;SDS011;21128;50.016;20.002;2024-02-21T14:25:07;10.70;;;4.50;;
34920;SDS011;21128;50.016;20.002;2024-02-21T14:27:34;10.50;;;4.60;;
34920;SDS011;21128;50.016;20.002;2024-02-21T14:30:04;16.10;;;5.00;;
34920;SDS011;21128;50.016;20.002;2024-02-21T14:32:32;10.30;;;4.90;;
34920;SDS011;21128;50.016;20.002;2024-02-21T14:34:59;11.30;;;4.60;;
34920;SDS011;21128;50.016;20.002;2024-02-21T14:37:26;11.20;;;4.40;;
34920;SDS011;21128;50.016;20.002;2024-02-21T14:39:52;14.50;;;5.10;;